KEWR Airport Information

Runway Information
Runway 04L Length 11000 ft width 150 ft
Elevation 10 ft Threshold 2543 ft Heading 26
Runway 22R Length 11000 ft Width 150 ft
Elevation 10 ft Threshold 1423 ft Heading 206
Runway 04R Length 10000 ft width 150 ft
Elevation 11 ft Threshold 1190 ft Heading 26
Runway 22L Length 10000 ft Width 150 ft
Elevation 10 ft Threshold 1794 ft Heading 206
Runway 11 Length 6800 ft width 150 ft
Elevation 18 ft Threshold 0 ft Heading 95
Runway 29 Length 6800 ft Width 150 ft
Elevation 10 ft Threshold 298 ft Heading 275
Airport Frequencies
Type APP Name NEW YORK A Frequency 127.6 MHZ
Type ATIS Name ATIS Frequency 115.7 MHZ
Type CLD Name CLNC DEL Frequency 118.85 MHZ
Type DEP Name NEW YORK D Frequency 119.2 MHZ
Type GND Name GND Frequency 121.8 MHZ
Type TWR Name TWR Frequency 118.3 MHZ
Type UNIC Name UNICOM Frequency 122.95 MHZ
Airport Navaids
Type NDB Name Chesa Frequency 241 KHZ
Type NDB Name Lizah Frequency 373 KHZ
Airport Weather Information & NOTAM
ADDS - METARS form results

(2227 UTC 22 July 2018)
 
METAR text: KEWR 222223Z 12011G19KT 7SM BKN009 BKN030 OVC042 24/23 A2996 RMK AO2 RAE19 P0014 T02390228 $
Conditions at: KEWR (NEWARK , NJ, US) observed 2223 UTC 22 July 2018
Temperature: 23.9°C (75°F)
Dewpoint: 22.8°C (73°F) [RH = 94%]
Pressure (altimeter): 29.96 inches Hg (1014.6 mb)
Winds: from the ESE (120 degrees) at 13 MPH (11 knots; 5.7 m/s)
gusting to 22 MPH (19 knots; 9.9 m/s)
Visibility: 7 miles (11 km)
Ceiling: 900 feet AGL
Clouds: broken clouds at 900 feet AGL
broken clouds at 3000 feet AGL
overcast cloud deck at 4200 feet AGL
Weather:
SOME DATA ABOVE MAY BE INACCURATE!!!
"$" is an indication the sensor requires maintenance

METAR text: KEWR 222221Z 12010G19KT 7SM BKN009 BKN028 OVC045 24/23 A2996 RMK AO2 RAE19 P0014 T02390228 $
Conditions at: KEWR (NEWARK , NJ, US) observed 2221 UTC 22 July 2018
Temperature: 23.9°C (75°F)
Dewpoint: 22.8°C (73°F) [RH = 94%]
Pressure (altimeter): 29.96 inches Hg (1014.6 mb)
Winds: from the ESE (120 degrees) at 12 MPH (10 knots; 5.2 m/s)
gusting to 22 MPH (19 knots; 9.9 m/s)
Visibility: 7 miles (11 km)
Ceiling: 900 feet AGL
Clouds: broken clouds at 900 feet AGL
broken clouds at 2800 feet AGL
overcast cloud deck at 4500 feet AGL
Weather:
SOME DATA ABOVE MAY BE INACCURATE!!!
"$" is an indication the sensor requires maintenance

METAR text: KEWR 222201Z 13013G21KT 1SM R04R/2600VP6000FT +RA BR BKN007 BKN020 OVC035 23/23 A2996 RMK AO2 SFC VIS 1 1/2 P0008 T02330228 $
Conditions at: KEWR (NEWARK , NJ, US) observed 2201 UTC 22 July 2018
Temperature: 23.3°C (74°F)
Dewpoint: 22.8°C (73°F) [RH = 97%]
Pressure (altimeter): 29.96 inches Hg (1014.6 mb)
Winds: from the SE (130 degrees) at 15 MPH (13 knots; 6.8 m/s)
gusting to 24 MPH (21 knots; 10.9 m/s)
Visibility: 1.00 miles (1.61 km)
Ceiling: 700 feet AGL
Clouds: broken clouds at 700 feet AGL
broken clouds at 2000 feet AGL
overcast cloud deck at 3500 feet AGL
Weather: +RA BR  (heavy rain, mist)
SOME DATA ABOVE MAY BE INACCURATE!!!
"$" is an indication the sensor requires maintenance

METAR text: KEWR 222151Z 13011G19KT 3SM R04R/4500VP6000FT -RA BR BKN011 BKN022 OVC075 24/23 A2995 RMK AO2 SFC VIS 5 RAB20 SLP142 P0001 T02390228 $
Conditions at: KEWR (NEWARK , NJ, US) observed 2151 UTC 22 July 2018
Temperature: 23.9°C (75°F)
Dewpoint: 22.8°C (73°F) [RH = 94%]
Pressure (altimeter): 29.95 inches Hg (1014.3 mb)
[Sea-level pressure: 1014.2 mb]
Winds: from the SE (130 degrees) at 13 MPH (11 knots; 5.7 m/s)
gusting to 22 MPH (19 knots; 9.9 m/s)
Visibility: 3 miles (5 km)
Ceiling: 1100 feet AGL
Clouds: broken clouds at 1100 feet AGL
broken clouds at 2200 feet AGL
overcast cloud deck at 7500 feet AGL
Weather: -RA BR  (light rain, mist)
SOME DATA ABOVE MAY BE INACCURATE!!!
"$" is an indication the sensor requires maintenance